Time;durP1;ratioP1;P1;durP2;ratioP2;P2;SDS_P1;SDS_P2;PMS_P1;PMS_P2;Temp;Humidity;BMP_temperature;BMP_pressure;BME280_temperature;BME280_humidity;BME280_pressure;Samples;Min_cycle;Max_cycle;Signal;HPM_P1;HPM_P2
2022/04/21 03:02:40;;;;;;;19.90;18.23;;;3.40;99.90;;;;;;4931409;29;20230;-75
2022/04/21 03:05:07;;;;;;;21.47;19.73;;;3.40;99.90;;;;;;4935712;29;20186;-76
2022/04/21 03:07:33;;;;;;;22.70;20.97;;;3.40;99.90;;;;;;4930716;29;20187;-74
2022/04/21 03:09:59;;;;;;;22.53;20.73;;;3.40;99.90;;;;;;4934459;29;20191;-73
2022/04/21 03:12:26;;;;;;;23.43;21.30;;;3.40;99.90;;;;;;4916461;29;20902;-73
2022/04/21 03:17:20;;;;;;;20.83;19.13;;;3.30;99.90;;;;;;4913519;29;20222;-75
2022/04/21 03:19:46;;;;;;;18.30;16.80;;;3.20;99.90;;;;;;4914891;29;20199;-75
2022/04/21 03:25:05;;;;;;;22.77;21.13;;;3.00;99.90;;;;;;4916751;29;20183;-74
2022/04/21 03:27:31;;;;;;;22.93;20.67;;;3.00;99.90;;;;;;4914692;29;20202;-75
2022/04/21 03:29:58;;;;;;;23.77;21.83;;;3.10;99.90;;;;;;4915599;29;20191;-75
2022/04/21 03:32:25;;;;;;;24.27;22.03;;;3.10;99.90;;;;;;4916427;29;20183;-80
2022/04/21 03:34:50;;;;;;;22.23;20.50;;;3.10;99.90;;;;;;4915997;29;20563;-75
2022/04/21 03:37:18;;;;;;;32.47;29.93;;;3.10;99.90;;;;;;4930539;29;20215;-75
2022/04/21 03:39:45;;;;;;;28.10;25.53;;;3.10;99.90;;;;;;4931989;29;20246;-77
2022/04/21 03:42:26;;;;;;;34.00;31.33;;;3.10;99.90;;;;;;4930996;29;20640;-76
2022/04/21 03:44:52;;;;;;;31.10;28.87;;;3.10;99.90;;;;;;4915377;29;20242;-76
2022/04/21 03:47:19;;;;;;;31.47;29.23;;;3.10;99.90;;;;;;4915157;29;20193;-76
2022/04/21 03:49:45;;;;;;;26.37;24.47;;;3.10;99.90;;;;;;4914971;29;20280;-76
2022/04/21 03:52:11;;;;;;;32.20;29.90;;;3.10;99.90;;;;;;4907208;29;20644;-76
2022/04/21 03:54:38;;;;;;;29.80;27.53;;;3.10;99.90;;;;;;4915290;29;20554;-76
2022/04/21 03:57:05;;;;;;;38.57;35.77;;;3.00;99.90;;;;;;4915016;29;20211;-76
2022/04/21 03:59:31;;;;;;;29.07;26.97;;;3.00;99.90;;;;;;4914529;29;20250;-76
2022/04/21 04:02:02;;;;;;;25.53;23.50;;;3.00;99.90;;;;;;4914692;29;20288;-76
2022/04/21 04:04:30;;;;;;;25.50;23.27;;;3.00;99.90;;;;;;4914900;29;20262;-75
2022/04/21 04:12:34;;;;;;;22.20;20.20;;;3.00;99.90;;;;;;4915817;29;20178;-75
2022/04/21 04:15:01;;;;;;;21.97;19.97;;;3.00;99.90;;;;;;4915564;29;20658;-76
2022/04/21 04:17:28;;;;;;;22.70;20.87;;;3.00;99.90;;;;;;4913866;29;20222;-76
2022/04/21 04:19:53;;;;;;;23.23;21.10;;;3.10;99.90;;;;;;4916133;29;20186;-76
2022/04/21 04:22:19;;;;;;;30.83;28.53;;;3.00;99.90;;;;;;4920503;29;20179;-76
2022/04/21 04:24:45;;;;;;;26.43;24.03;;;3.00;99.90;;;;;;4917919;29;20616;-75
2022/04/21 04:27:12;;;;;;;28.90;26.07;;;3.00;99.90;;;;;;4914663;29;20231;-75
2022/04/21 04:29:37;;;;;;;28.27;25.73;;;2.90;99.90;;;;;;4914590;29;20287;-77
2022/04/21 04:32:04;;;;;;;27.53;25.47;;;2.90;99.90;;;;;;4914756;29;20218;-77
2022/04/21 04:34:29;;;;;;;27.30;24.83;;;2.90;99.90;;;;;;4915949;29;20569;-75
2022/04/21 04:36:55;;;;;;;25.57;23.53;;;2.90;99.90;;;;;;4914083;29;20211;-75
2022/04/21 04:39:21;;;;;;;21.80;19.90;;;2.90;99.90;;;;;;4914522;29;20302;-76
2022/04/21 04:44:31;;;;;;;26.03;23.50;;;3.00;99.90;;;;;;4915482;29;20219;-76
2022/04/21 04:46:57;;;;;;;27.10;24.90;;;3.10;99.90;;;;;;4915420;29;20208;-77
2022/04/21 04:49:24;;;;;;;26.30;24.30;;;3.10;99.90;;;;;;4919073;29;20210;-77
2022/04/21 04:51:50;;;;;;;22.77;20.83;;;3.20;99.90;;;;;;4927724;29;20179;-77
2022/04/21 04:54:17;;;;;;;28.17;26.00;;;3.20;99.90;;;;;;4925638;29;20260;-77
2022/04/21 04:56:47;;;;;;;23.70;21.60;;;3.30;99.90;;;;;;4931377;29;20210;-77
2022/04/21 04:59:13;;;;;;;19.37;17.80;;;3.40;99.90;;;;;;4919919;29;20217;-72
2022/04/21 05:01:43;;;;;;;19.57;17.93;;;3.50;99.90;;;;;;4916671;29;20563;-72
2022/04/21 05:04:11;;;;;;;17.20;15.50;;;3.60;99.90;;;;;;4915433;29;20655;-72
2022/04/21 05:06:42;;;;;;;19.53;17.70;;;3.80;99.90;;;;;;4914502;29;20203;-72
2022/04/21 05:09:10;;;;;;;17.80;16.23;;;4.00;99.90;;;;;;4914149;29;20225;-72
2022/04/21 05:11:46;;;;;;;20.53;18.57;;;4.20;99.90;;;;;;4915100;29;20209;-71
2022/04/21 05:14:13;;;;;;;57.10;53.40;;;4.60;99.90;;;;;;4914976;29;20197;-72
2022/04/21 05:16:39;;;;;;;17.17;15.37;;;5.00;99.90;;;;;;4914852;29;20218;-71
2022/04/21 05:19:09;;;;;;;19.30;14.20;;;5.50;99.90;;;;;;4914567;29;20221;-70
2022/04/21 05:21:37;;;;;;;22.77;20.87;;;6.00;99.90;;;;;;4914712;29;20597;-70
2022/04/21 05:24:03;;;;;;;20.10;18.50;;;6.40;99.90;;;;;;4914759;29;20179;-72
2022/04/21 05:26:31;;;;;;;21.87;20.07;;;6.80;99.90;;;;;;4913660;29;20199;-70
2022/04/21 05:28:58;;;;;;;30.07;27.60;;;7.20;99.90;;;;;;4915403;29;20187;-70
2022/04/21 05:31:26;;;;;;;26.23;24.40;;;7.40;99.90;;;;;;4918745;29;20198;-71
2022/04/21 05:33:54;;;;;;;18.43;16.73;;;7.80;99.90;;;;;;4918525;29;20260;-71
2022/04/21 05:36:20;;;;;;;14.17;12.97;;;8.10;99.90;;;;;;4917290;29;20230;-70
2022/04/21 05:38:47;;;;;;;16.30;14.67;;;8.40;99.90;;;;;;4917884;29;20207;-71
2022/04/21 05:41:18;;;;;;;18.47;17.00;;;8.80;99.90;;;;;;4918547;29;20254;-70
2022/04/21 05:43:46;;;;;;;24.23;22.33;;;9.00;99.90;;;;;;4918125;29;20273;-70
2022/04/21 05:46:14;;;;;;;28.60;26.33;;;9.20;99.90;;;;;;4918462;29;20220;-71
2022/04/21 05:48:40;;;;;;;16.17;14.40;;;9.60;99.90;;;;;;4916834;29;20277;-72
2022/04/21 05:51:09;;;;;;;16.73;15.33;;;10.00;99.90;;;;;;4917388;29;20202;-71
2022/04/21 05:53:45;;;;;;;13.97;12.10;;;10.30;99.90;;;;;;4918422;29;20203;-71
2022/04/21 05:56:11;;;;;;;15.23;13.93;;;10.40;99.90;;;;;;4918448;29;20211;-71
2022/04/21 05:58:37;;;;;;;14.07;12.83;;;10.80;99.90;;;;;;4917640;29;20678;-71
2022/04/21 06:01:09;;;;;;;13.57;12.47;;;11.10;99.90;;;;;;4918088;29;20194;-71
2022/04/21 06:03:38;;;;;;;18.63;17.13;;;11.40;99.90;;;;;;4916835;29;20307;-71
2022/04/21 06:06:05;;;;;;;26.87;24.97;;;11.80;99.90;;;;;;4917177;29;20747;-72
2022/04/21 06:08:31;;;;;;;21.23;19.70;;;11.90;99.90;;;;;;4917965;29;20723;-71
2022/04/21 06:10:57;;;;;;;14.97;13.80;;;12.20;99.90;;;;;;4917100;29;20282;-71
2022/04/21 06:13:24;;;;;;;12.53;11.23;;;12.30;99.90;;;;;;4917620;29;20183;-71
2022/04/21 06:15:50;;;;;;;13.43;12.00;;;12.50;99.90;;;;;;4917875;29;20328;-71
2022/04/21 06:18:16;;;;;;;15.27;13.73;;;12.60;99.90;;;;;;4917482;29;20266;-71
2022/04/21 06:20:42;;;;;;;18.40;14.57;;;12.80;99.90;;;;;;4917846;29;20218;-71
2022/04/21 06:23:08;;;;;;;14.10;12.83;;;13.10;99.90;;;;;;4917944;29;20619;-72
2022/04/21 06:25:35;;;;;;;14.40;13.20;;;13.40;99.90;;;;;;4916743;29;20234;-72
2022/04/21 06:28:03;;;;;;;13.43;12.33;;;13.30;99.90;;;;;;4916233;29;20179;-72
2022/04/21 06:30:28;;;;;;;13.30;11.87;;;13.80;99.90;;;;;;4917839;29;20205;-72
2022/04/21 06:32:54;;;;;;;14.10;11.97;;;13.90;99.90;;;;;;4917872;29;20187;-71
2022/04/21 06:35:20;;;;;;;12.93;11.73;;;14.20;99.90;;;;;;4917407;29;20214;-72
2022/04/21 06:37:46;;;;;;;14.87;12.70;;;14.50;99.90;;;;;;4916329;29;20261;-72
2022/04/21 06:40:12;;;;;;;14.40;13.10;;;14.60;98.90;;;;;;4915669;29;20186;-72
2022/04/21 06:42:42;;;;;;;13.70;12.30;;;14.90;98.00;;;;;;4916246;29;20188;-72
2022/04/21 06:48:04;;;;;;;15.63;14.03;;;15.20;96.80;;;;;;4917183;29;20186;-70
2022/04/21 06:50:37;;;;;;;14.37;13.17;;;15.10;96.20;;;;;;4917709;29;20795;-71
2022/04/21 06:53:05;;;;;;;15.67;14.27;;;15.00;96.20;;;;;;4916555;29;20282;-71
2022/04/21 06:55:31;;;;;;;14.60;13.30;;;15.30;95.50;;;;;;4915497;29;20207;-70
2022/04/21 06:57:57;;;;;;;14.50;13.40;;;15.30;95.70;;;;;;4916833;29;20228;-71
2022/04/21 07:00:26;;;;;;;15.07;13.67;;;15.50;95.00;;;;;;4917204;29;20270;-70
2022/04/21 07:02:55;;;;;;;15.13;13.70;;;15.70;94.60;;;;;;4917000;29;20187;-70
2022/04/21 07:05:25;;;;;;;16.27;15.00;;;16.00;93.70;;;;;;4916878;29;20203;-70
2022/04/21 07:07:51;;;;;;;15.83;14.43;;;16.20;93.40;;;;;;4916697;29;20274;-70
2022/04/21 07:10:18;;;;;;;15.03;13.80;;;16.60;91.60;;;;;;4915717;29;20187;-71
2022/04/21 07:12:45;;;;;;;15.17;14.00;;;16.20;92.00;;;;;;4917789;29;20191;-71
2022/04/21 07:15:11;;;;;;;14.77;13.63;;;16.30;92.00;;;;;;4915602;29;20187;-71
2022/04/21 07:17:38;;;;;;;17.50;15.97;;;16.40;91.60;;;;;;4916328;29;20281;-71
2022/04/21 07:20:06;;;;;;;17.53;16.23;;;16.30;91.00;;;;;;4916847;29;20187;-70
2022/04/21 07:22:32;;;;;;;16.40;15.10;;;16.00;91.60;;;;;;4917433;29;20559;-71
2022/04/21 07:25:00;;;;;;;17.07;15.47;;;16.10;91.40;;;;;;4917505;29;20266;-71
2022/04/21 07:27:26;;;;;;;15.97;14.50;;;16.30;91.50;;;;;;4916653;29;20195;-72
2022/04/21 07:29:52;;;;;;;15.73;14.40;;;16.80;91.20;;;;;;4917906;29;20278;-71
2022/04/21 07:32:18;;;;;;;16.10;14.80;;;16.90;89.90;;;;;;4916832;29;20274;-71
2022/04/21 07:34:44;;;;;;;20.80;19.30;;;16.60;89.90;;;;;;4915391;29;20209;-71
2022/04/21 07:37:10;;;;;;;19.83;18.33;;;16.20;90.40;;;;;;4915059;29;20265;-71
2022/04/21 07:39:46;;;;;;;15.67;14.47;;;15.80;91.00;;;;;;4916098;29;20306;-71
2022/04/21 07:42:13;;;;;;;14.20;13.00;;;16.40;90.50;;;;;;4916399;29;20214;-71
2022/04/21 07:44:39;;;;;;;15.67;11.30;;;17.00;89.90;;;;;;4916318;29;20183;-71
2022/04/21 07:47:07;;;;;;;12.23;10.93;;;17.00;86.10;;;;;;4915869;29;20207;-71
2022/04/21 07:49:45;;;;;;;16.03;14.63;;;16.50;87.10;;;;;;4916092;29;20183;-71
2022/04/21 07:55:20;;;;;;;12.47;11.47;;;15.40;88.00;;;;;;4915727;29;20798;-72
2022/04/21 07:57:47;;;;;;;11.37;10.47;;;15.20;88.70;;;;;;4914653;29;20302;-71
2022/04/21 08:00:16;;;;;;;10.80;9.90;;;15.00;89.30;;;;;;4919902;29;20589;-71
2022/04/21 08:02:43;;;;;;;10.40;9.33;;;14.80;88.70;;;;;;4921788;29;20274;-71
2022/04/21 08:05:10;;;;;;;9.43;8.60;;;14.70;88.90;;;;;;4920440;29;20503;-71
2022/04/21 08:07:37;;;;;;;9.57;8.53;;;15.00;89.10;;;;;;4936099;29;20178;-71
2022/04/21 08:10:07;;;;;;;10.50;9.60;;;14.90;88.80;;;;;;4935657;29;20241;-71
2022/04/21 08:12:43;;;;;;;10.40;9.57;;;14.80;90.10;;;;;;4934089;29;20602;-71
2022/04/21 08:15:11;;;;;;;8.70;7.90;;;15.00;89.30;;;;;;4935003;29;20681;-71
2022/04/21 08:17:38;;;;;;;9.50;8.70;;;15.00;88.40;;;;;;4934603;29;20182;-72
2022/04/21 08:20:10;;;;;;;9.17;8.27;;;14.90;89.90;;;;;;4935457;29;20183;-72
2022/04/21 08:22:37;;;;;;;9.50;8.70;;;15.00;89.60;;;;;;4935252;29;20258;-72
2022/04/21 08:33:18;;;;;;;8.90;8.20;;;15.60;88.80;;;;;;4896767;29;20274;-72
2022/04/21 08:35:45;;;;;;;8.13;7.33;;;15.40;87.90;;;;;;4914391;29;20207;-72
2022/04/21 08:38:11;;;;;;;8.60;7.90;;;15.40;88.70;;;;;;4916172;29;20219;-72
2022/04/21 08:40:38;;;;;;;8.43;7.83;;;15.40;87.80;;;;;;4915925;29;20182;-72
2022/04/21 08:43:15;;;;;;;9.27;8.03;;;15.50;87.00;;;;;;4915299;29;20604;-72
2022/04/21 08:45:46;;;;;;;9.50;8.70;;;15.70;86.40;;;;;;4915320;29;20203;-72
2022/04/21 08:48:13;;;;;;;8.73;8.03;;;15.40;87.50;;;;;;4914936;29;20183;-72
2022/04/21 08:50:39;;;;;;;8.93;7.57;;;15.70;87.40;;;;;;4915183;29;20613;-72
2022/04/21 08:53:06;;;;;;;11.77;10.97;;;16.30;86.00;;;;;;4915155;29;20203;-72
2022/04/21 08:55:33;;;;;;;12.97;12.03;;;16.60;83.00;;;;;;4915074;29;20218;-72
2022/04/21 08:58:00;;;;;;;9.97;9.27;;;17.20;80.80;;;;;;4914387;29;20219;-73
2022/04/21 09:00:26;;;;;;;8.93;8.13;;;17.30;79.30;;;;;;4915667;29;20186;-72
2022/04/21 09:02:53;;;;;;;9.80;9.10;;;17.30;78.10;;;;;;4914134;29;20191;-72
2022/04/21 09:05:22;;;;;;;8.47;7.90;;;17.20;79.90;;;;;;4915046;29;20262;-72
2022/04/21 09:07:50;;;;;;;8.00;7.40;;;17.50;78.40;;;;;;4914449;29;20734;-72
2022/04/21 09:10:17;;;;;;;8.93;7.47;;;17.90;77.60;;;;;;4913607;29;20617;-72
2022/04/21 09:12:48;;;;;;;8.53;7.77;;;18.30;76.90;;;;;;4914465;29;20191;-72
2022/04/21 09:15:16;;;;;;;8.10;7.50;;;19.20;73.00;;;;;;4913565;29;20211;-71
2022/04/21 09:17:43;;;;;;;7.80;7.30;;;19.00;72.10;;;;;;4934795;23;20722;-74
2022/04/21 09:20:10;;;;;;;7.47;6.87;;;18.90;71.00;;;;;;4913869;29;20535;-74
2022/04/21 09:22:40;;;;;;;8.03;7.43;;;18.90;71.30;;;;;;4919174;29;20642;-74
2022/04/21 09:25:07;;;;;;;7.73;7.20;;;18.60;72.00;;;;;;4932290;29;20183;-74
2022/04/21 09:27:41;;;;;;;8.50;7.80;;;18.40;72.90;;;;;;4933154;29;20226;-74
2022/04/21 09:30:12;;;;;;;8.53;7.70;;;18.40;73.10;;;;;;4948268;29;20552;-73
2022/04/21 09:32:40;;;;;;;9.90;7.23;;;18.70;72.90;;;;;;4937217;29;20187;-74
2022/04/21 09:35:07;;;;;;;5.80;5.40;;;19.00;70.40;;;;;;4934278;29;20206;-74
2022/04/21 09:37:44;;;;;;;7.87;7.37;;;19.40;69.70;;;;;;4932962;29;20551;-74
2022/04/21 09:40:10;;;;;;;7.33;6.70;;;19.20;69.10;;;;;;4918506;29;20592;-74
2022/04/21 09:42:36;;;;;;;7.10;6.60;;;18.90;71.00;;;;;;4914329;29;20573;-74
2022/04/21 09:47:51;;;;;;;6.40;5.90;;;18.50;72.10;;;;;;4930643;29;20215;-73
2022/04/21 09:50:17;;;;;;;7.77;6.87;;;18.40;70.20;;;;;;4913539;29;20243;-73
2022/04/21 09:52:51;;;;;;;6.57;6.17;;;18.50;69.70;;;;;;4912503;29;20187;-73
2022/04/21 09:55:25;;;;;;;6.97;6.37;;;18.30;70.20;;;;;;4913766;29;20573;-74
2022/04/21 09:57:52;;;;;;;7.50;6.90;;;18.50;71.70;;;;;;4912977;29;20219;-74
2022/04/21 10:00:21;;;;;;;6.60;6.20;;;18.60;70.00;;;;;;4914716;29;20545;-74
2022/04/21 10:02:50;;;;;;;5.60;5.30;;;19.10;68.80;;;;;;4913152;29;20220;-74
2022/04/21 10:05:16;;;;;;;5.80;5.43;;;19.10;67.50;;;;;;4915697;29;20187;-74
2022/04/21 10:07:44;;;;;;;7.07;6.57;;;19.30;67.60;;;;;;4917772;29;20249;-74
2022/04/21 10:10:10;;;;;;;5.73;5.43;;;19.40;66.20;;;;;;4913196;29;20214;-74
2022/04/21 10:12:37;;;;;;;6.67;6.13;;;19.10;66.70;;;;;;4913047;29;20190;-74
2022/04/21 10:15:04;;;;;;;5.80;5.50;;;19.40;66.20;;;;;;4915291;29;20675;-73
2022/04/21 10:17:29;;;;;;;5.70;5.40;;;18.80;65.50;;;;;;4915661;29;20226;-74
2022/04/21 10:19:55;;;;;;;6.00;5.60;;;18.90;65.90;;;;;;4918046;29;20183;-75
2022/04/21 10:22:22;;;;;;;5.73;5.43;;;18.90;67.10;;;;;;4917720;29;20681;-73
2022/04/21 10:24:48;;;;;;;5.20;4.80;;;19.10;64.90;;;;;;4916443;29;20262;-73
2022/04/21 10:27:35;;;;;;;4.63;4.43;;;19.30;63.50;;;;;;4917098;29;20585;-73
2022/04/21 10:30:02;;;;;;;4.60;4.40;;;20.30;63.50;;;;;;4910005;29;20198;-73
2022/04/21 10:32:54;;;;;;;4.40;4.20;;;21.40;62.50;;;;;;4914220;29;20282;-73
2022/04/21 10:35:24;;;;;;;4.47;4.28;;;21.40;58.50;;;;;;4902371;29;20199;-73
2022/04/21 10:38:18;;;;;;;4.43;4.13;;;21.00;60.00;;;;;;4935960;29;20313;-73
2022/04/21 10:41:07;;;;;;;4.63;4.43;;;20.50;57.60;;;;;;4935135;29;20190;-73
2022/04/21 10:43:50;;;;;;;4.18;4.07;;;20.30;58.00;;;;;;4936191;29;20277;-73
2022/04/21 10:46:26;;;;;;;3.53;3.42;;;20.10;56.60;;;;;;4936126;29;20186;-73
2022/04/21 10:48:52;;;;;;;3.47;3.38;;;20.20;55.80;;;;;;4922811;29;20222;-73
2022/04/21 10:57:16;;;;;;;4.13;3.92;;;20.40;54.90;;;;;;4897746;29;20643;-73
2022/04/21 11:00:08;;;;;;;4.10;3.90;;;20.90;54.20;;;;;;4898153;29;20696;-73
2022/04/21 11:02:44;;;;;;;3.30;3.20;;;21.40;53.20;;;;;;4898109;29;20657;-73
2022/04/21 11:05:22;;;;;;;3.55;3.45;;;21.70;52.10;;;;;;4897959;29;20656;-73
2022/04/21 11:07:53;;;;;;;3.65;3.55;;;21.80;52.50;;;;;;4902072;29;20207;-73
2022/04/21 11:10:37;;;;;;;3.65;3.55;;;22.20;52.60;;;;;;4900662;29;20191;-75
2022/04/21 11:13:05;;;;;;;4.25;4.05;;;23.00;52.20;;;;;;4898095;29;20202;-74
2022/04/21 11:15:32;;;;;;;3.90;3.80;;;22.40;52.20;;;;;;4897905;29;20219;-74
2022/04/21 11:18:02;;;;;;;3.55;3.45;;;21.90;52.80;;;;;;4897154;29;20310;-74
2022/04/21 11:20:28;;;;;;;3.63;3.47;;;21.80;54.30;;;;;;4897717;29;20191;-73
2022/04/21 11:22:53;;;;;;;4.30;4.10;;;21.60;53.50;;;;;;4896934;29;20179;-73
2022/04/21 11:25:19;;;;;;;3.85;3.75;;;21.10;54.50;;;;;;4909461;29;20228;-73
2022/04/21 11:27:45;;;;;;;4.18;3.97;;;22.00;53.70;;;;;;4903336;29;20254;-74
2022/04/21 11:30:15;;;;;;;3.85;3.75;;;22.00;51.90;;;;;;4896726;29;20791;-74
2022/04/21 11:32:53;;;;;;;4.18;4.05;;;21.80;51.60;;;;;;4897610;29;20207;-74
2022/04/21 11:35:22;;;;;;;3.88;3.78;;;21.80;51.30;;;;;;4897675;29;20198;-73
2022/04/21 11:37:52;;;;;;;4.35;4.15;;;22.10;51.40;;;;;;4897189;29;20271;-74
2022/04/21 11:40:21;;;;;;;4.35;4.15;;;21.90;51.60;;;;;;4898830;29;20195;-74
2022/04/21 11:42:49;;;;;;;4.65;4.38;;;22.20;51.80;;;;;;4898144;29;20649;-73
2022/04/21 11:45:36;;;;;;;4.30;4.10;;;22.40;51.40;;;;;;4897253;29;20188;-73
2022/04/21 11:48:10;;;;;;;4.70;4.40;;;21.80;51.50;;;;;;4895590;29;20279;-73
2022/04/21 11:50:35;;;;;;;4.35;4.15;;;21.60;52.00;;;;;;4897415;29;20283;-73
2022/04/21 11:53:15;;;;;;;5.40;5.05;;;21.90;51.40;;;;;;4897431;29;20271;-73
2022/04/21 11:55:41;;;;;;;4.70;4.50;;;21.60;52.10;;;;;;4897347;29;20187;-73
2022/04/21 11:58:07;;;;;;;4.85;4.50;;;21.20;53.10;;;;;;4896668;29;20267;-73
2022/04/21 12:08:47;;;;;;;4.82;4.57;;;21.90;52.50;;;;;;4898093;29;20212;-73
2022/04/21 12:11:16;;;;;;;4.53;4.32;;;21.40;52.20;;;;;;4898419;29;20275;-74
2022/04/21 12:13:44;;;;;;;4.28;4.07;;;21.20;52.20;;;;;;4895376;29;20248;-74
2022/04/21 12:16:45;;;;;;;4.95;4.57;;;21.20;51.90;;;;;;4896845;29;20180;-73
2022/04/21 12:19:17;;;;;;;4.10;3.90;;;21.70;51.30;;;;;;4896392;29;20219;-74
2022/04/21 12:21:58;;;;;;;4.35;4.13;;;22.70;49.80;;;;;;4895365;29;20239;-74
2022/04/21 12:24:30;;;;;;;4.65;4.45;;;23.60;48.70;;;;;;4924389;29;20175;-74
2022/04/21 12:26:56;;;;;;;5.93;5.63;;;23.90;49.20;;;;;;4932958;29;20206;-74
2022/04/21 12:29:23;;;;;;;7.47;6.97;;;23.20;48.80;;;;;;4935026;29;20220;-74
2022/04/21 12:31:51;;;;;;;5.68;5.38;;;23.70;48.00;;;;;;4933684;29;20186;-74
2022/04/21 12:34:22;;;;;;;5.65;5.25;;;23.30;49.00;;;;;;4934065;29;20182;-74
2022/04/21 12:36:52;;;;;;;4.20;4.00;;;22.40;49.10;;;;;;4933900;29;20299;-74
2022/04/21 12:39:19;;;;;;;6.00;5.63;;;22.20;50.00;;;;;;4935596;29;20217;-74
2022/04/21 12:41:45;;;;;;;9.18;8.68;;;23.10;48.00;;;;;;4933937;29;20189;-74
2022/04/21 12:44:12;;;;;;;12.38;11.68;;;24.00;46.80;;;;;;4937250;29;20195;-73
2022/04/21 12:46:39;;;;;;;14.70;14.02;;;24.30;46.40;;;;;;4939132;29;20652;-73
2022/04/21 12:49:06;;;;;;;13.98;13.27;;;25.10;45.30;;;;;;4935208;29;20185;-73
2022/04/21 12:51:32;;;;;;;16.27;15.43;;;24.40;45.40;;;;;;4932853;29;20193;-73
2022/04/21 12:53:58;;;;;;;10.00;9.38;;;24.10;47.20;;;;;;4933140;29;20277;-73
2022/04/21 12:56:35;;;;;;;5.57;5.22;;;22.60;48.70;;;;;;4932896;29;20556;-73
2022/04/21 12:59:02;;;;;;;3.80;3.60;;;21.70;50.20;;;;;;4929701;29;20225;-73
2022/04/21 13:01:28;;;;;;;5.20;4.75;;;20.90;51.70;;;;;;4906054;29;20183;-73
2022/04/21 13:03:57;;;;;;;4.90;4.40;;;20.10;53.60;;;;;;4915119;29;20183;-73
2022/04/21 13:06:30;;;;;;;4.20;4.00;;;19.90;54.70;;;;;;4918188;29;20194;-72
2022/04/21 13:08:57;;;;;;;4.60;4.35;;;19.80;55.00;;;;;;4922934;29;20270;-73
2022/04/21 13:11:23;;;;;;;4.70;4.50;;;19.70;56.10;;;;;;4915325;29;20719;-73
2022/04/21 13:13:51;;;;;;;5.20;4.83;;;19.50;56.40;;;;;;4914546;29;20206;-73
2022/04/21 13:16:18;;;;;;;5.10;4.80;;;19.00;57.00;;;;;;4914934;29;20221;-72
2022/04/21 13:18:45;;;;;;;4.80;4.50;;;19.60;56.30;;;;;;4913375;29;20415;-73
2022/04/21 13:23:56;;;;;;;4.22;3.95;;;20.80;53.20;;;;;;4914625;29;20186;-73
2022/04/21 13:26:28;;;;;;;4.73;4.53;;;20.20;53.80;;;;;;4914896;29;20218;-73
2022/04/21 13:28:56;;;;;;;5.03;4.72;;;19.60;55.70;;;;;;4915250;29;20218;-73
2022/04/21 13:34:08;;;;;;;4.47;4.25;;;19.50;56.20;;;;;;4915352;29;20302;-73
2022/04/21 13:36:37;;;;;;;5.40;5.10;;;19.90;55.60;;;;;;4915087;29;20190;-73
2022/04/21 13:39:02;;;;;;;6.10;4.88;;;19.90;55.70;;;;;;4914179;29;20223;-73
2022/04/21 13:41:28;;;;;;;4.78;4.57;;;20.50;54.90;;;;;;4914805;29;20190;-73
2022/04/21 13:43:54;;;;;;;5.25;4.82;;;20.60;54.00;;;;;;4914499;29;20187;-73
2022/04/21 13:46:20;;;;;;;4.65;4.18;;;20.20;54.40;;;;;;4913445;29;20680;-73
2022/04/21 13:48:45;;;;;;;5.10;4.77;;;19.50;55.00;;;;;;4913335;29;20262;-73
2022/04/21 13:51:11;;;;;;;4.80;4.60;;;19.20;55.70;;;;;;4916464;29;20187;-72
2022/04/21 13:53:37;;;;;;;4.83;4.53;;;18.90;57.00;;;;;;4918297;29;20653;-73
2022/04/21 13:56:06;;;;;;;4.93;4.40;;;18.60;56.90;;;;;;4918222;29;20183;-73
2022/04/21 13:58:33;;;;;;;5.57;5.27;;;18.40;57.00;;;;;;4916563;29;20637;-72
2022/04/21 14:00:59;;;;;;;5.23;4.93;;;18.50;57.20;;;;;;4917092;29;20255;-72
2022/04/21 14:03:25;;;;;;;4.63;4.43;;;18.60;57.20;;;;;;4917923;29;20207;-72
2022/04/21 14:05:51;;;;;;;5.97;4.47;;;18.90;57.10;;;;;;4918073;29;20183;-73
2022/04/21 14:08:18;;;;;;;4.60;4.40;;;19.20;55.20;;;;;;4917773;29;20230;-72
2022/04/21 14:10:44;;;;;;;4.33;4.13;;;19.50;54.90;;;;;;4919242;29;20635;-72
2022/04/21 14:13:10;;;;;;;4.30;4.10;;;19.50;54.90;;;;;;4918480;29;20215;-74
2022/04/21 14:15:36;;;;;;;4.50;4.20;;;19.40;54.50;;;;;;4918192;29;20186;-73
2022/04/21 14:18:02;;;;;;;8.17;5.10;;;19.50;54.50;;;;;;4916797;29;20309;-72
2022/04/21 14:20:28;;;;;;;4.83;4.40;;;19.80;54.00;;;;;;4929647;29;20163;-72
2022/04/21 14:22:54;;;;;;;4.50;4.20;;;20.40;53.40;;;;;;4934360;29;20662;-72
2022/04/21 14:25:20;;;;;;;4.07;3.88;;;20.90;52.40;;;;;;4936801;29;20246;-72
2022/04/21 14:27:46;;;;;;;4.63;4.22;;;21.90;51.10;;;;;;4920979;29;20221;-73
2022/04/21 14:30:12;;;;;;;4.07;3.83;;;22.50;50.60;;;;;;4916873;29;20718;-73
2022/04/21 14:32:39;;;;;;;4.40;4.20;;;23.30;48.80;;;;;;4917938;29;20210;-73
2022/04/21 14:35:06;;;;;;;5.35;5.10;;;23.30;48.20;;;;;;4917526;29;20187;-73
2022/04/21 14:45:45;;;;;;;4.22;4.03;;;21.20;52.50;;;;;;4917883;29;20269;-73
2022/04/21 14:48:11;;;;;;;4.57;4.38;;;21.50;50.80;;;;;;4932518;29;20203;-73
2022/04/21 14:50:38;;;;;;;4.10;3.90;;;22.00;50.40;;;;;;4920237;29;20277;-72
2022/04/21 14:53:05;;;;;;;5.07;4.78;;;21.80;50.10;;;;;;4916100;29;20556;-72
2022/04/21 14:55:32;;;;;;;3.70;3.50;;;21.80;50.70;;;;;;4915965;29;20498;-72
2022/04/21 14:57:58;;;;;;;4.13;3.92;;;22.50;48.80;;;;;;4915456;29;20219;-73
2022/04/21 15:00:24;;;;;;;5.70;5.38;;;23.00;48.20;;;;;;4915563;29;20250;-72
2022/04/21 15:02:52;;;;;;;16.08;15.38;;;23.90;46.90;;;;;;4917233;29;20183;-73
2022/04/21 15:05:18;;;;;;;12.98;12.38;;;24.90;44.60;;;;;;4917334;29;20187;-73
2022/04/21 15:07:43;;;;;;;13.07;12.38;;;25.00;44.00;;;;;;4916775;29;20628;-73
2022/04/21 15:10:09;;;;;;;13.25;12.55;;;24.80;43.20;;;;;;4917271;29;20187;-73
2022/04/21 15:12:35;;;;;;;9.05;8.65;;;22.70;46.10;;;;;;4917129;29;20183;-73
2022/04/21 15:15:02;;;;;;;3.80;3.60;;;21.70;48.40;;;;;;4915703;29;20192;-72
2022/04/21 15:17:28;;;;;;;5.03;4.25;;;20.80;49.90;;;;;;4937112;23;20228;-73
2022/04/21 15:19:54;;;;;;;3.83;3.63;;;21.00;50.30;;;;;;4915813;29;20223;-72
2022/04/21 15:22:20;;;;;;;4.20;4.00;;;21.10;49.50;;;;;;4915935;29;20194;-73
2022/04/21 15:24:49;;;;;;;4.20;3.85;;;21.60;50.00;;;;;;4914899;29;20187;-73
2022/04/21 15:27:16;;;;;;;3.83;3.63;;;22.10;48.70;;;;;;4916416;29;20654;-74
2022/04/21 15:29:41;;;;;;;3.75;3.50;;;22.20;48.10;;;;;;4915431;29;20189;-73
2022/04/21 15:32:07;;;;;;;3.70;3.50;;;21.90;48.60;;;;;;4916698;29;20265;-72
2022/04/21 15:34:33;;;;;;;4.18;3.72;;;21.80;48.40;;;;;;4916758;29;20644;-74
2022/04/21 15:37:00;;;;;;;3.80;3.60;;;21.50;49.00;;;;;;4915444;29;20187;-75
2022/04/21 15:39:26;;;;;;;4.00;3.80;;;21.60;49.10;;;;;;4916132;29;20223;-74
2022/04/21 15:41:52;;;;;;;4.28;4.07;;;22.40;47.50;;;;;;4915487;29;20286;-72
2022/04/21 15:44:17;;;;;;;4.32;3.72;;;22.00;47.40;;;;;;4916367;29;20726;-74
2022/04/21 15:46:43;;;;;;;4.50;4.30;;;20.60;48.90;;;;;;4924031;29;20608;-72
2022/04/21 15:49:09;;;;;;;3.90;3.70;;;19.80;50.60;;;;;;4919109;29;20241;-73
2022/04/21 15:51:37;;;;;;;4.30;4.00;;;19.00;52.30;;;;;;4917503;29;20186;-73
2022/04/21 15:59:31;;;;;;;3.90;3.70;;;17.70;55.30;;;;;;4897305;29;20625;-73
2022/04/21 16:01:57;;;;;;;4.47;4.20;;;17.70;56.00;;;;;;4897220;29;20256;-73
2022/04/21 16:04:23;;;;;;;4.27;3.90;;;17.50;56.20;;;;;;4897342;29;20218;-72
2022/04/21 16:06:49;;;;;;;4.77;4.47;;;17.70;56.00;;;;;;4900669;29;20243;-69
2022/04/21 16:09:14;;;;;;;4.80;4.60;;;18.10;55.30;;;;;;4895836;29;20770;-72
2022/04/21 16:11:40;;;;;;;4.23;4.03;;;18.60;54.50;;;;;;4901729;29;20198;-71
2022/04/21 16:14:06;;;;;;;4.87;4.67;;;18.50;54.10;;;;;;4896205;29;20270;-72
2022/04/21 16:16:32;;;;;;;5.17;4.87;;;17.90;55.80;;;;;;4909584;29;20187;-73
2022/04/21 16:18:58;;;;;;;4.93;4.63;;;17.70;56.90;;;;;;4914901;29;20219;-70
2022/04/21 16:21:24;;;;;;;5.67;5.17;;;17.60;57.40;;;;;;4909994;29;20198;-75
2022/04/21 16:23:50;;;;;;;5.10;4.70;;;17.70;57.50;;;;;;4893916;29;20845;-71
2022/04/21 16:26:16;;;;;;;5.40;5.00;;;18.10;56.30;;;;;;4904540;29;20218;-70
2022/04/21 16:28:44;;;;;;;6.27;5.60;;;18.50;55.90;;;;;;4907050;29;20199;-70
2022/04/21 16:31:10;;;;;;;5.50;5.20;;;19.30;54.40;;;;;;4897215;29;20203;-71
2022/04/21 16:33:35;;;;;;;5.17;4.77;;;20.00;53.00;;;;;;4897440;29;20312;-71
2022/04/21 16:36:01;;;;;;;5.70;5.10;;;20.00;52.30;;;;;;4904039;29;20183;-72
2022/04/21 16:38:27;;;;;;;4.93;4.63;;;20.10;52.60;;;;;;4915139;29;20225;-71
2022/04/21 16:40:54;;;;;;;5.00;4.70;;;19.80;52.60;;;;;;4915449;29;20183;-72
2022/04/21 16:43:20;;;;;;;5.13;4.80;;;19.50;53.30;;;;;;4915611;29;20201;-71
2022/04/21 16:45:45;;;;;;;5.17;4.87;;;19.20;54.00;;;;;;4909719;29;20180;-71
2022/04/21 16:48:11;;;;;;;5.67;5.27;;;19.40;54.40;;;;;;4894902;29;20211;-71
2022/04/21 16:50:37;;;;;;;5.47;4.97;;;18.80;55.10;;;;;;4896657;29;20213;-71